createdAt,value
2022-12-23T00:00:35.329Z,958.58
2022-12-23T00:01:35.555Z,958.60
2022-12-23T00:02:35.585Z,958.59
2022-12-23T00:03:35.582Z,958.56
2022-12-23T00:04:35.266Z,958.64
2022-12-23T00:05:37.894Z,958.74
2022-12-23T00:06:35.238Z,958.68
2022-12-23T00:07:35.451Z,958.65
2022-12-23T00:08:35.192Z,958.62
2022-12-23T00:09:35.245Z,958.64
2022-12-23T00:10:35.197Z,958.66
2022-12-23T00:11:35.251Z,958.67
2022-12-23T00:12:35.151Z,958.64
2022-12-23T00:13:35.160Z,958.68
2022-12-23T00:14:35.203Z,958.68
2022-12-23T00:15:35.095Z,958.62
2022-12-23T00:16:35.265Z,958.63
2022-12-23T00:17:35.060Z,958.64
2022-12-23T00:18:35.128Z,958.61
2022-12-23T00:19:35.184Z,958.63
2022-12-23T00:20:35.060Z,958.54
2022-12-23T00:21:35.145Z,958.48
2022-12-23T00:22:35.012Z,958.48
2022-12-23T00:23:35.133Z,958.54
2022-12-23T00:24:34.996Z,958.45
2022-12-23T00:25:35.151Z,958.57
2022-12-23T00:26:34.958Z,958.54
2022-12-23T00:27:37.713Z,958.51
2022-12-23T00:28:34.965Z,958.55
2022-12-23T00:29:34.971Z,958.54
2022-12-23T00:30:34.936Z,958.54
2022-12-23T00:31:35.033Z,958.51
2022-12-23T00:32:34.945Z,958.52
2022-12-23T00:33:35.005Z,958.54
2022-12-23T00:34:34.900Z,958.53
2022-12-23T00:35:35.028Z,958.59
2022-12-23T00:36:34.886Z,958.50
2022-12-23T00:37:34.961Z,958.45
2022-12-23T00:38:34.819Z,958.60
2022-12-23T00:39:34.849Z,958.54
2022-12-23T00:40:34.791Z,958.66
2022-12-23T00:41:34.901Z,958.53
2022-12-23T00:42:34.751Z,958.52
2022-12-23T00:43:34.809Z,958.55
2022-12-23T00:44:34.752Z,958.55
2022-12-23T00:45:34.943Z,958.57
2022-12-23T00:46:34.705Z,958.66
2022-12-23T00:47:34.884Z,958.62
2022-12-23T00:48:34.713Z,958.58
2022-12-23T00:49:34.746Z,958.60
2022-12-23T00:50:34.663Z,958.58
2022-12-23T00:51:34.721Z,958.58
2022-12-23T00:52:34.640Z,958.63
2022-12-23T00:53:34.747Z,958.72
2022-12-23T00:54:34.642Z,958.63
2022-12-23T00:55:34.647Z,958.65
2022-12-23T00:56:34.580Z,958.70
2022-12-23T00:57:34.662Z,958.71
2022-12-23T00:58:34.587Z,958.68
2022-12-23T00:59:34.615Z,958.70
2022-12-23T01:00:34.531Z,958.68
2022-12-23T01:01:34.743Z,958.62
2022-12-23T01:02:34.600Z,958.68
2022-12-23T01:03:34.614Z,958.73
2022-12-23T01:04:34.481Z,958.74
2022-12-23T01:05:34.527Z,958.80
2022-12-23T01:06:34.622Z,958.73
2022-12-23T01:07:34.467Z,958.74
2022-12-23T01:08:34.635Z,958.82
2022-12-23T01:09:34.399Z,958.86
2022-12-23T01:10:34.522Z,958.86
2022-12-23T01:11:34.420Z,958.87
2022-12-23T01:12:34.426Z,958.84
2022-12-23T01:13:34.461Z,958.87
2022-12-23T01:14:34.348Z,958.90
2022-12-23T01:15:34.567Z,958.90
2022-12-23T01:16:34.351Z,958.95
2022-12-23T01:17:34.482Z,958.98
2022-12-23T01:18:34.295Z,958.95
2022-12-23T01:19:34.512Z,958.95
2022-12-23T01:20:34.295Z,959.02
2022-12-23T01:21:34.312Z,959.04
2022-12-23T01:22:34.250Z,959.05
2022-12-23T01:23:34.315Z,959.04
2022-12-23T01:24:34.248Z,959.09
2022-12-23T01:25:34.231Z,959.10
2022-12-23T01:26:34.228Z,959.14
2022-12-23T01:27:34.251Z,959.11
2022-12-23T01:28:34.204Z,959.10
2022-12-23T01:29:34.414Z,959.12
2022-12-23T01:30:34.152Z,959.13
2022-12-23T01:31:34.252Z,959.13
2022-12-23T01:32:34.207Z,959.10
2022-12-23T01:33:34.127Z,959.13
2022-12-23T01:34:37.216Z,959.12
2022-12-23T01:35:34.047Z,959.18
2022-12-23T01:36:34.137Z,959.22
2022-12-23T01:37:34.155Z,959.23
2022-12-23T01:38:34.059Z,959.27
2022-12-23T01:39:34.275Z,959.22
2022-12-23T01:40:34.044Z,959.19
2022-12-23T01:41:34.037Z,959.21
2022-12-23T01:42:33.996Z,959.21
2022-12-23T01:43:34.054Z,959.21
2022-12-23T01:44:33.974Z,959.22
2022-12-23T01:45:34.107Z,959.21
2022-12-23T01:46:33.992Z,959.20
2022-12-23T01:47:34.094Z,959.23
2022-12-23T01:48:33.935Z,959.21
2022-12-23T01:49:34.131Z,959.22
2022-12-23T01:50:33.889Z,959.22
2022-12-23T01:51:33.915Z,959.24
2022-12-23T01:52:33.856Z,959.26
2022-12-23T01:53:33.932Z,959.25
2022-12-23T01:54:33.874Z,959.27
2022-12-23T01:55:34.080Z,959.29
2022-12-23T01:56:33.822Z,959.36
2022-12-23T01:57:33.851Z,959.35
2022-12-23T01:58:33.815Z,959.34
2022-12-23T01:59:33.882Z,959.39
2022-12-23T02:00:33.794Z,959.35
2022-12-23T02:01:34.057Z,959.36
2022-12-23T02:02:33.897Z,959.39
2022-12-23T02:03:33.960Z,959.39
2022-12-23T02:04:34.451Z,959.38
2022-12-23T02:05:33.811Z,959.36
2022-12-23T02:06:33.690Z,959.39
2022-12-23T02:07:33.728Z,959.39
2022-12-23T02:08:33.662Z,959.41
2022-12-23T02:09:33.819Z,959.41
2022-12-23T02:10:33.661Z,959.42
2022-12-23T02:11:33.743Z,959.50
2022-12-23T02:12:33.635Z,959.50
2022-12-23T02:13:33.755Z,959.50
2022-12-23T02:14:33.606Z,959.47
2022-12-23T02:15:33.685Z,959.53
2022-12-23T02:16:33.725Z,959.54
2022-12-23T02:17:33.583Z,959.59
2022-12-23T02:18:33.568Z,959.54
2022-12-23T02:19:33.599Z,959.60
2022-12-23T02:20:33.504Z,959.64
2022-12-23T02:21:33.671Z,959.61
2022-12-23T02:22:33.480Z,959.65
2022-12-23T02:23:33.635Z,959.65
2022-12-23T02:24:33.548Z,959.66
2022-12-23T02:25:33.468Z,959.69
2022-12-23T02:26:33.565Z,959.68
2022-12-23T02:27:33.396Z,959.64
2022-12-23T02:28:33.581Z,959.65
2022-12-23T02:29:33.563Z,959.65
2022-12-23T02:30:33.454Z,959.67
2022-12-23T02:31:33.610Z,959.67
2022-12-23T02:32:33.343Z,959.65
2022-12-23T02:33:33.428Z,959.66
2022-12-23T02:34:33.422Z,959.68
2022-12-23T02:35:33.398Z,959.68
2022-12-23T02:36:33.281Z,959.70
2022-12-23T02:37:33.466Z,959.69
2022-12-23T02:38:33.261Z,959.72
2022-12-23T02:39:33.475Z,959.71
2022-12-23T02:40:33.242Z,959.71
2022-12-23T02:41:33.444Z,959.75
2022-12-23T02:42:33.263Z,959.73
2022-12-23T02:43:33.355Z,959.72
2022-12-23T02:44:33.212Z,959.77
2022-12-23T02:45:33.316Z,959.74
2022-12-23T02:46:33.277Z,959.74
2022-12-23T02:47:33.290Z,959.78
2022-12-23T02:48:33.143Z,959.79
2022-12-23T02:49:33.231Z,959.74
2022-12-23T02:50:33.251Z,959.76
2022-12-23T02:51:33.084Z,959.81
2022-12-23T02:52:33.227Z,959.79
2022-12-23T02:53:33.056Z,959.79
2022-12-23T02:54:33.181Z,959.82
2022-12-23T02:55:33.136Z,959.85
2022-12-23T02:56:33.057Z,959.84
2022-12-23T02:57:33.092Z,959.85
2022-12-23T02:58:33.016Z,959.83
2022-12-23T02:59:33.057Z,959.81
2022-12-23T03:00:32.980Z,959.84
2022-12-23T03:01:33.078Z,959.86
2022-12-23T03:02:33.289Z,959.88
2022-12-23T03:03:33.029Z,959.90
2022-12-23T03:04:33.101Z,959.91
2022-12-23T03:05:32.906Z,959.93
2022-12-23T03:06:33.071Z,959.96
2022-12-23T03:07:32.910Z,959.97
2022-12-23T03:08:33.039Z,959.93
2022-12-23T03:09:32.838Z,959.91
2022-12-23T03:10:33.068Z,959.97
2022-12-23T03:11:32.853Z,959.96
2022-12-23T03:12:33.105Z,959.93
2022-12-23T03:13:32.806Z,959.94
2022-12-23T03:14:32.860Z,960.03
2022-12-23T03:15:32.842Z,960.03
2022-12-23T03:16:32.983Z,960.04
2022-12-23T03:17:32.775Z,960.01
2022-12-23T03:18:32.921Z,959.99
2022-12-23T03:19:32.728Z,959.98
2022-12-23T03:20:32.820Z,960.03
2022-12-23T03:21:32.828Z,960.02
2022-12-23T03:22:32.706Z,960.03
2022-12-23T03:23:32.851Z,960.03
2022-12-23T03:24:32.667Z,960.04
2022-12-23T03:25:32.841Z,960.06
2022-12-23T03:26:32.625Z,960.08
2022-12-23T03:27:32.639Z,960.11
2022-12-23T03:28:32.847Z,960.09
2022-12-23T03:29:32.638Z,960.12
2022-12-23T03:30:32.665Z,960.13
2022-12-23T03:31:32.672Z,960.14
2022-12-23T03:32:32.673Z,960.14
2022-12-23T03:33:32.584Z,960.17
2022-12-23T03:34:32.722Z,960.16
2022-12-23T03:35:32.541Z,960.13
2022-12-23T03:36:32.704Z,960.18
2022-12-23T03:37:32.534Z,960.16
2022-12-23T03:38:32.614Z,960.19
2022-12-23T03:39:32.526Z,960.19
2022-12-23T03:40:32.575Z,960.19
2022-12-23T03:41:32.490Z,960.24
2022-12-23T03:42:32.529Z,960.22
2022-12-23T03:43:32.439Z,960.20
2022-12-23T03:44:32.541Z,960.22
2022-12-23T03:45:41.117Z,960.25
2022-12-23T03:46:32.453Z,960.20
2022-12-23T03:47:32.483Z,960.25
2022-12-23T03:48:32.382Z,960.29
2022-12-23T03:49:32.516Z,960.29
2022-12-23T03:50:32.350Z,960.31
2022-12-23T03:51:32.461Z,960.37
2022-12-23T03:52:32.372Z,960.35
2022-12-23T03:53:32.311Z,960.35
2022-12-23T03:54:32.508Z,960.38
2022-12-23T03:55:32.302Z,960.37
2022-12-23T03:56:32.379Z,960.39
2022-12-23T03:57:32.254Z,960.38
2022-12-23T03:58:32.345Z,960.40
2022-12-23T03:59:32.236Z,960.38
2022-12-23T04:00:32.411Z,960.36
2022-12-23T04:01:32.330Z,960.43
2022-12-23T04:02:32.635Z,960.40
2022-12-23T04:03:32.195Z,960.39
2022-12-23T04:04:32.413Z,960.42
2022-12-23T04:05:32.172Z,960.43
2022-12-23T04:06:32.312Z,960.49
2022-12-23T04:07:32.158Z,960.44
2022-12-23T04:08:32.325Z,960.41
2022-12-23T04:09:32.127Z,960.45
2022-12-23T04:10:32.344Z,960.43
2022-12-23T04:11:32.097Z,960.47
2022-12-23T04:12:32.181Z,960.42
2022-12-23T04:13:32.219Z,960.46
2022-12-23T04:14:32.028Z,960.46
2022-12-23T04:15:32.164Z,960.45
2022-12-23T04:16:32.066Z,960.48
2022-12-23T04:17:32.258Z,960.46
2022-12-23T04:18:32.194Z,960.44
2022-12-23T04:19:38.997Z,960.42
2022-12-23T04:20:32.095Z,960.43
2022-12-23T04:21:31.954Z,960.42
2022-12-23T04:22:32.013Z,960.45
2022-12-23T04:23:31.962Z,960.49
2022-12-23T04:24:32.033Z,960.49
2022-12-23T04:25:31.901Z,960.48
2022-12-23T04:26:32.034Z,960.41
2022-12-23T04:27:31.899Z,960.41
2022-12-23T04:28:32.094Z,960.46
2022-12-23T04:29:31.882Z,960.46
2022-12-23T04:30:34.773Z,960.48
2022-12-23T04:31:31.893Z,960.47
2022-12-23T04:32:32.008Z,960.45
2022-12-23T04:33:31.795Z,960.45
2022-12-23T04:34:32.015Z,960.44
2022-12-23T04:35:31.812Z,960.43
2022-12-23T04:36:31.833Z,960.45
2022-12-23T04:37:31.739Z,960.49
2022-12-23T04:38:31.842Z,960.48
2022-12-23T04:39:31.843Z,960.53
2022-12-23T04:40:31.680Z,960.51
2022-12-23T04:41:31.885Z,960.53
2022-12-23T04:42:31.692Z,960.55
2022-12-23T04:43:31.857Z,960.56
2022-12-23T04:44:31.650Z,960.57
2022-12-23T04:45:31.789Z,960.63
2022-12-23T04:46:31.686Z,960.62
2022-12-23T04:47:31.731Z,960.67
2022-12-23T04:48:31.580Z,960.70
2022-12-23T04:49:31.715Z,960.73
2022-12-23T04:50:31.552Z,960.71
2022-12-23T04:51:31.720Z,960.71
2022-12-23T04:52:31.545Z,960.75
2022-12-23T04:53:31.720Z,960.74
2022-12-23T04:54:31.510Z,960.80
2022-12-23T04:55:31.696Z,960.78
2022-12-23T04:56:31.488Z,960.81
2022-12-23T04:57:31.815Z,960.82
2022-12-23T04:58:31.446Z,960.79
2022-12-23T04:59:31.667Z,960.81
2022-12-23T05:00:35.566Z,960.77
2022-12-23T05:01:31.672Z,960.74
2022-12-23T05:02:31.610Z,960.71
2022-12-23T05:03:31.570Z,960.74
2022-12-23T05:04:31.579Z,960.76
2022-12-23T05:05:31.400Z,960.73
2022-12-23T05:06:31.502Z,960.72
2022-12-23T05:07:31.404Z,960.68
2022-12-23T05:08:31.509Z,960.64
2022-12-23T05:09:31.364Z,960.64
2022-12-23T05:10:31.449Z,960.62
2022-12-23T05:11:31.359Z,960.69
2022-12-23T05:12:31.431Z,960.69
2022-12-23T05:13:31.305Z,960.78
2022-12-23T05:14:31.493Z,960.73
2022-12-23T05:15:31.273Z,960.75
2022-12-23T05:16:31.405Z,960.74
2022-12-23T05:17:31.242Z,960.77
2022-12-23T05:18:31.379Z,960.86
2022-12-23T05:19:31.249Z,960.86
2022-12-23T05:20:31.320Z,960.79
2022-12-23T05:21:31.295Z,960.80
2022-12-23T05:22:31.170Z,960.76
2022-12-23T05:23:31.334Z,960.75
2022-12-23T05:24:31.116Z,960.71
2022-12-23T05:25:31.383Z,960.70
2022-12-23T05:26:31.405Z,960.77
2022-12-23T05:27:31.103Z,960.82
2022-12-23T05:28:31.330Z,960.88
2022-12-23T05:29:31.088Z,960.91
2022-12-23T05:30:31.271Z,960.94
2022-12-23T05:31:31.188Z,960.89
2022-12-23T05:32:31.065Z,960.81
2022-12-23T05:33:31.144Z,960.81
2022-12-23T05:34:31.185Z,960.74
2022-12-23T05:35:31.056Z,960.72
2022-12-23T05:36:31.102Z,960.72
2022-12-23T05:37:30.995Z,960.73
2022-12-23T05:38:31.115Z,960.71
2022-12-23T05:39:30.989Z,960.73
2022-12-23T05:40:31.059Z,960.71
2022-12-23T05:41:30.958Z,960.77
2022-12-23T05:42:31.134Z,960.78
2022-12-23T05:43:30.894Z,960.83
2022-12-23T05:44:31.043Z,960.87
2022-12-23T05:45:30.932Z,960.88
2022-12-23T05:46:31.064Z,960.90
2022-12-23T05:47:30.898Z,960.90
2022-12-23T05:48:30.849Z,960.94
2022-12-23T05:49:30.941Z,960.95
2022-12-23T05:50:30.789Z,960.95
2022-12-23T05:51:30.973Z,960.95
2022-12-23T05:52:30.766Z,960.98
2022-12-23T05:53:30.953Z,960.97
2022-12-23T05:54:30.746Z,960.89
2022-12-23T05:55:30.993Z,960.87
2022-12-23T05:56:30.713Z,960.88
2022-12-23T05:57:30.996Z,960.90
2022-12-23T05:58:30.696Z,960.93
2022-12-23T05:59:31.739Z,961.04
2022-12-23T06:00:30.881Z,961.05
2022-12-23T06:01:30.825Z,961.05
2022-12-23T06:02:30.916Z,961.08
2022-12-23T06:03:31.010Z,961.09
2022-12-23T06:04:30.674Z,961.07
2022-12-23T06:05:30.706Z,961.03
2022-12-23T06:06:30.592Z,961.01
2022-12-23T06:07:30.812Z,961.02
2022-12-23T06:08:30.642Z,961.04
2022-12-23T06:09:30.577Z,961.02
2022-12-23T06:10:30.832Z,961.02
2022-12-23T06:11:30.551Z,961.01
2022-12-23T06:12:30.672Z,961.00
2022-12-23T06:13:30.541Z,961.00
2022-12-23T06:14:30.532Z,960.99
2022-12-23T06:15:30.516Z,960.97
2022-12-23T06:16:30.591Z,960.95
2022-12-23T06:17:30.460Z,961.04
2022-12-23T06:18:30.563Z,961.04
2022-12-23T06:19:30.478Z,961.03
2022-12-23T06:20:30.468Z,961.06
2022-12-23T06:21:30.430Z,961.02
2022-12-23T06:22:30.594Z,961.05
2022-12-23T06:23:30.452Z,961.05
2022-12-23T06:24:30.492Z,961.13
2022-12-23T06:25:30.411Z,961.09
2022-12-23T06:26:31.016Z,961.11
2022-12-23T06:27:30.351Z,961.13
2022-12-23T06:28:30.462Z,961.11
2022-12-23T06:29:30.446Z,961.09
2022-12-23T06:30:30.269Z,961.09
2022-12-23T06:31:30.649Z,961.14
2022-12-23T06:32:36.123Z,961.13
2022-12-23T06:33:30.306Z,961.10
2022-12-23T06:34:30.475Z,961.07
2022-12-23T06:35:30.280Z,961.05
2022-12-23T06:36:30.296Z,961.04
2022-12-23T06:37:30.244Z,961.03
2022-12-23T06:38:30.389Z,961.04
2022-12-23T06:39:30.214Z,961.01
2022-12-23T06:40:30.300Z,961.01
2022-12-23T06:41:30.207Z,961.01
2022-12-23T06:42:30.219Z,960.99
2022-12-23T06:43:30.155Z,961.00
2022-12-23T06:44:30.290Z,961.03
2022-12-23T06:45:30.162Z,961.01
2022-12-23T06:46:30.209Z,960.98
2022-12-23T06:47:30.130Z,960.96
2022-12-23T06:48:30.178Z,960.95
2022-12-23T06:49:30.065Z,960.94
2022-12-23T06:50:30.133Z,960.99
2022-12-23T06:51:30.081Z,960.92
2022-12-23T06:52:30.242Z,960.95
2022-12-23T06:53:30.023Z,960.97
2022-12-23T06:54:30.152Z,961.00
2022-12-23T06:55:30.256Z,960.97
2022-12-23T06:56:30.033Z,960.98
2022-12-23T06:57:30.137Z,960.99
2022-12-23T06:58:29.928Z,961.00
2022-12-23T06:59:30.107Z,961.05
2022-12-23T07:00:30.044Z,961.07
2022-12-23T07:01:30.101Z,961.10
2022-12-23T07:02:30.099Z,961.14
2022-12-23T07:03:29.980Z,961.20
2022-12-23T07:04:29.966Z,961.15
2022-12-23T07:05:36.755Z,961.19
2022-12-23T07:06:29.837Z,961.18
2022-12-23T07:07:29.916Z,961.19
2022-12-23T07:08:29.802Z,961.18
2022-12-23T07:09:29.941Z,961.23
2022-12-23T07:10:29.887Z,961.23
2022-12-23T07:11:30.061Z,961.23
2022-12-23T07:12:29.755Z,961.29
2022-12-23T07:13:29.890Z,961.25
2022-12-23T07:14:29.744Z,961.30
2022-12-23T07:15:29.922Z,961.30
2022-12-23T07:16:29.864Z,961.33
2022-12-23T07:17:29.718Z,961.32
2022-12-23T07:18:29.883Z,961.36
2022-12-23T07:19:29.703Z,961.31
2022-12-23T07:20:29.899Z,961.31
2022-12-23T07:21:30.365Z,961.34
2022-12-23T07:22:29.656Z,961.29
2022-12-23T07:23:29.767Z,961.28
2022-12-23T07:24:29.605Z,961.29
2022-12-23T07:25:29.719Z,961.27
2022-12-23T07:26:29.603Z,961.33
2022-12-23T07:27:29.725Z,961.31
2022-12-23T07:28:29.555Z,961.30
2022-12-23T07:29:29.850Z,961.29
2022-12-23T07:30:29.519Z,961.28
2022-12-23T07:31:29.799Z,961.31
2022-12-23T07:32:29.496Z,961.33
2022-12-23T07:33:29.674Z,961.37
2022-12-23T07:34:29.472Z,961.43
2022-12-23T07:35:29.727Z,961.46
2022-12-23T07:36:29.454Z,961.45
2022-12-23T07:37:29.647Z,961.45
2022-12-23T07:38:29.457Z,961.47
2022-12-23T07:39:29.559Z,961.42
2022-12-23T07:40:29.463Z,961.41
2022-12-23T07:41:29.524Z,961.43
2022-12-23T07:42:50.946Z,961.46
2022-12-23T07:43:30.068Z,961.49
2022-12-23T07:44:29.772Z,961.45
2022-12-23T07:45:29.485Z,961.52
2022-12-23T07:46:29.712Z,961.51
2022-12-23T07:47:29.411Z,961.52
2022-12-23T07:48:29.371Z,961.52
2022-12-23T07:49:29.568Z,961.51
2022-12-23T07:50:29.284Z,961.52
2022-12-23T07:51:30.273Z,961.48
2022-12-23T07:52:29.280Z,961.43
2022-12-23T07:53:29.483Z,961.48
2022-12-23T07:54:29.244Z,961.51
2022-12-23T07:55:29.474Z,961.49
2022-12-23T07:56:29.321Z,961.50
2022-12-23T07:57:29.359Z,961.56
2022-12-23T07:58:29.256Z,961.51
2022-12-23T07:59:29.299Z,961.56
2022-12-23T08:00:30.035Z,961.58
2022-12-23T08:01:29.371Z,961.58
2022-12-23T08:02:29.344Z,961.62
2022-12-23T08:03:29.356Z,961.60
2022-12-23T08:04:29.413Z,961.63
2022-12-23T08:05:29.551Z,961.68
2022-12-23T08:06:29.117Z,961.65
2022-12-23T08:07:29.247Z,961.64
2022-12-23T08:08:29.232Z,961.65
2022-12-23T08:09:29.121Z,961.65
2022-12-23T08:10:29.162Z,961.66
2022-12-23T08:11:29.020Z,961.68
2022-12-23T08:12:29.300Z,961.73
2022-12-23T08:13:29.008Z,961.70
2022-12-23T08:14:29.260Z,961.76
2022-12-23T08:15:29.000Z,961.73
2022-12-23T08:16:29.266Z,961.76
2022-12-23T08:17:28.952Z,961.78
2022-12-23T08:18:29.072Z,961.80
2022-12-23T08:19:29.159Z,961.85
2022-12-23T08:20:29.146Z,961.83
2022-12-23T08:21:28.857Z,961.77
2022-12-23T08:22:29.173Z,961.76
2022-12-23T08:23:28.854Z,961.71
2022-12-23T08:24:29.137Z,961.73
2022-12-23T08:25:28.824Z,961.71
2022-12-23T08:26:28.875Z,961.68
2022-12-23T08:27:28.831Z,961.72
2022-12-23T08:28:29.024Z,961.71
2022-12-23T08:29:32.598Z,961.67
2022-12-23T08:30:28.910Z,961.68
2022-12-23T08:31:29.166Z,961.71
2022-12-23T08:32:28.780Z,961.64
2022-12-23T08:33:28.879Z,961.64
2022-12-23T08:34:28.767Z,961.62
2022-12-23T08:35:28.829Z,961.63
2022-12-23T08:36:28.684Z,961.66
2022-12-23T08:37:28.794Z,961.66
2022-12-23T08:38:28.753Z,961.64
2022-12-23T08:39:28.808Z,961.62
2022-12-23T08:40:28.662Z,961.61
2022-12-23T08:41:28.890Z,961.60
2022-12-23T08:42:28.624Z,961.56
2022-12-23T08:43:33.756Z,961.57
2022-12-23T08:44:28.761Z,961.58
2022-12-23T08:45:28.733Z,961.60
2022-12-23T08:46:29.412Z,961.60
2022-12-23T08:47:28.710Z,961.59
2022-12-23T08:48:28.568Z,961.54
2022-12-23T08:49:28.728Z,961.53
2022-12-23T08:50:28.790Z,961.59
2022-12-23T08:51:28.534Z,961.61
2022-12-23T08:52:28.714Z,961.57
2022-12-23T08:53:28.523Z,961.53
2022-12-23T08:54:28.744Z,961.50
2022-12-23T08:55:28.457Z,961.53
2022-12-23T08:56:28.560Z,961.55
2022-12-23T08:57:28.469Z,961.58
2022-12-23T08:58:28.468Z,961.62
2022-12-23T08:59:28.717Z,961.60
2022-12-23T09:00:28.543Z,961.61
2022-12-23T09:01:28.615Z,961.59
2022-12-23T09:02:28.810Z,961.59
2022-12-23T09:03:28.714Z,961.58
2022-12-23T09:04:28.855Z,961.63
2022-12-23T09:05:28.341Z,961.59
2022-12-23T09:06:30.300Z,961.62
2022-12-23T09:07:28.459Z,961.57
2022-12-23T09:08:28.395Z,961.61
2022-12-23T09:09:28.255Z,961.63
2022-12-23T09:10:28.502Z,961.66
2022-12-23T09:11:28.318Z,961.66
2022-12-23T09:12:29.151Z,961.67
2022-12-23T09:13:35.298Z,961.67
2022-12-23T09:14:28.204Z,961.68
2022-12-23T09:15:28.483Z,961.69
2022-12-23T09:16:28.445Z,961.70
2022-12-23T09:17:28.179Z,961.70
2022-12-23T09:18:28.380Z,961.75
2022-12-23T09:19:28.103Z,961.74
2022-12-23T09:20:28.445Z,961.81
2022-12-23T09:21:28.292Z,961.75
2022-12-23T09:22:28.083Z,961.74
2022-12-23T09:23:28.366Z,961.77
2022-12-23T09:24:28.153Z,961.77
2022-12-23T09:25:28.196Z,961.78
2022-12-23T09:26:28.093Z,961.74
2022-12-23T09:27:28.216Z,961.77
2022-12-23T09:28:28.196Z,961.72
2022-12-23T09:29:28.282Z,961.73
2022-12-23T09:30:28.300Z,961.75
2022-12-23T09:31:34.322Z,961.70
2022-12-23T09:32:28.119Z,961.67
2022-12-23T09:33:28.320Z,961.69
2022-12-23T09:34:28.039Z,961.68
2022-12-23T09:35:28.080Z,961.66
2022-12-23T09:36:28.199Z,961.65
2022-12-23T09:37:28.134Z,961.65
2022-12-23T09:38:27.950Z,961.61
2022-12-23T09:39:28.493Z,961.62
2022-12-23T09:40:27.948Z,961.58
2022-12-23T09:41:28.335Z,961.59
2022-12-23T09:42:27.855Z,961.57
2022-12-23T09:43:28.042Z,961.58
2022-12-23T09:44:28.057Z,961.59
2022-12-23T09:45:28.025Z,961.53
2022-12-23T09:46:28.098Z,961.49
2022-12-23T09:47:27.944Z,961.49
2022-12-23T09:48:27.793Z,961.47
2022-12-23T09:49:27.929Z,961.48
2022-12-23T09:50:27.758Z,961.45
2022-12-23T09:51:28.560Z,961.44
2022-12-23T09:52:27.972Z,961.45
2022-12-23T09:53:27.680Z,961.44
2022-12-23T09:54:27.888Z,961.45
2022-12-23T09:55:27.650Z,961.44
2022-12-23T09:56:27.738Z,961.39
2022-12-23T09:57:27.894Z,961.38
2022-12-23T09:58:27.733Z,961.33
2022-12-23T09:59:27.742Z,961.39
2022-12-23T10:00:27.602Z,961.38
2022-12-23T10:01:27.911Z,961.37
2022-12-23T10:02:27.941Z,961.36
2022-12-23T10:03:28.029Z,961.30
2022-12-23T10:04:27.710Z,961.33
2022-12-23T10:05:28.427Z,961.27
2022-12-23T10:06:27.582Z,961.29
2022-12-23T10:07:27.841Z,961.31
2022-12-23T10:08:28.541Z,961.32
2022-12-23T10:09:27.840Z,961.34
2022-12-23T10:10:27.553Z,961.29
2022-12-23T10:11:28.077Z,961.27
2022-12-23T10:12:30.639Z,961.25
2022-12-23T10:13:27.639Z,961.25
2022-12-23T10:14:28.012Z,961.17
2022-12-23T10:15:27.445Z,961.22
2022-12-23T10:16:27.730Z,961.17
2022-12-23T10:17:27.543Z,961.19
2022-12-23T10:18:27.880Z,961.17
2022-12-23T10:19:27.604Z,961.19
2022-12-23T10:20:27.498Z,961.20
2022-12-23T10:21:27.472Z,961.15
2022-12-23T10:22:27.463Z,961.13
2022-12-23T10:23:28.106Z,961.17
2022-12-23T10:24:27.616Z,961.15
2022-12-23T10:25:27.545Z,961.15
2022-12-23T10:26:27.301Z,961.14
2022-12-23T10:27:27.466Z,961.18
2022-12-23T10:28:29.817Z,961.14
2022-12-23T10:29:27.298Z,961.12
2022-12-23T10:30:53.907Z,961.11
2022-12-23T10:31:42.876Z,961.07
2022-12-23T10:32:27.347Z,961.09
2022-12-23T10:33:27.351Z,961.14
2022-12-23T10:34:27.165Z,961.08
2022-12-23T10:35:28.070Z,961.11
2022-12-23T10:36:27.290Z,961.06
2022-12-23T10:37:27.541Z,961.08
2022-12-23T10:38:27.105Z,961.03
2022-12-23T10:39:27.301Z,960.98
2022-12-23T10:40:27.293Z,961.00
2022-12-23T10:41:27.177Z,961.02
2022-12-23T10:42:27.078Z,960.99
2022-12-23T10:43:27.129Z,961.00
2022-12-23T10:44:27.070Z,961.00
2022-12-23T10:45:27.252Z,960.96
2022-12-23T10:46:27.098Z,960.97
2022-12-23T10:47:27.082Z,960.98
2022-12-23T10:48:26.962Z,960.98
2022-12-23T10:49:27.162Z,960.97
2022-12-23T10:50:27.222Z,960.98
2022-12-23T10:51:27.146Z,960.95
2022-12-23T10:52:26.900Z,960.94
2022-12-23T10:53:27.080Z,960.96
2022-12-23T10:54:26.990Z,960.90
2022-12-23T10:55:32.913Z,960.93
2022-12-23T10:56:26.859Z,960.84
2022-12-23T10:57:26.983Z,960.85
2022-12-23T10:58:26.857Z,960.81
2022-12-23T10:59:26.916Z,960.88
2022-12-23T11:00:27.040Z,960.83
2022-12-23T11:01:27.705Z,960.87
2022-12-23T11:02:27.299Z,960.81
2022-12-23T11:03:27.155Z,960.83
2022-12-23T11:04:26.964Z,960.84
2022-12-23T11:05:26.702Z,960.82
2022-12-23T11:06:30.240Z,960.78
2022-12-23T11:07:44.755Z,960.75
2022-12-23T11:08:26.712Z,960.74
2022-12-23T11:09:26.824Z,960.76
2022-12-23T11:10:26.667Z,960.76
2022-12-23T11:11:27.185Z,960.79
2022-12-23T11:12:26.651Z,960.74
2022-12-23T11:13:26.888Z,960.71
2022-12-23T11:14:26.666Z,960.63
2022-12-23T11:15:26.772Z,960.64
2022-12-23T11:16:26.662Z,960.62
2022-12-23T11:17:26.754Z,960.59
2022-12-23T11:18:26.566Z,960.54
2022-12-23T11:19:26.748Z,960.57
2022-12-23T11:20:26.603Z,960.49
2022-12-23T11:21:26.707Z,960.45
2022-12-23T11:22:26.516Z,960.49
2022-12-23T11:23:26.669Z,960.46
2022-12-23T11:24:26.502Z,960.48
2022-12-23T11:25:26.636Z,960.45
2022-12-23T11:26:26.492Z,960.42
2022-12-23T11:27:26.604Z,960.37
2022-12-23T11:28:26.447Z,960.33
2022-12-23T11:29:26.633Z,960.34
2022-12-23T11:30:26.715Z,960.38
2022-12-23T11:31:26.445Z,960.30
2022-12-23T11:32:26.563Z,960.28
2022-12-23T11:33:26.404Z,960.25
2022-12-23T11:34:26.719Z,960.25
2022-12-23T11:35:26.458Z,960.26
2022-12-23T11:36:26.316Z,960.25
2022-12-23T11:37:26.390Z,960.23
2022-12-23T11:38:26.383Z,960.23
2022-12-23T11:39:26.533Z,960.24
2022-12-23T11:40:26.295Z,960.24
2022-12-23T11:41:26.432Z,960.21
2022-12-23T11:42:26.250Z,960.19
2022-12-23T11:43:26.777Z,960.15
2022-12-23T11:44:26.236Z,960.14
2022-12-23T11:45:26.607Z,960.07
2022-12-23T11:46:26.226Z,960.04
2022-12-23T11:47:26.512Z,960.05
2022-12-23T11:48:26.176Z,960.04
2022-12-23T11:49:26.357Z,960.05
2022-12-23T11:50:26.171Z,960.04
2022-12-23T11:51:26.290Z,960.05
2022-12-23T11:52:26.114Z,960.02
2022-12-23T11:53:26.310Z,960.01
2022-12-23T11:54:26.222Z,959.97
2022-12-23T11:55:26.220Z,959.92
2022-12-23T11:56:26.082Z,959.93
2022-12-23T11:57:26.161Z,959.92
2022-12-23T11:58:26.020Z,959.90
2022-12-23T11:59:26.176Z,959.91
2022-12-23T12:00:26.774Z,959.89
2022-12-23T12:01:26.252Z,959.92
2022-12-23T12:02:26.100Z,959.87
2022-12-23T12:03:26.268Z,959.94
2022-12-23T12:04:25.957Z,959.85
2022-12-23T12:05:26.053Z,959.85
2022-12-23T12:06:25.945Z,959.83
2022-12-23T12:07:26.075Z,959.80
2022-12-23T12:08:25.944Z,959.82
2022-12-23T12:09:26.107Z,959.81
2022-12-23T12:10:25.874Z,959.78
2022-12-23T12:11:26.124Z,959.77
2022-12-23T12:12:25.879Z,959.78
2022-12-23T12:13:26.209Z,959.80
2022-12-23T12:14:25.802Z,959.76
2022-12-23T12:15:26.138Z,959.76
2022-12-23T12:16:25.831Z,959.74
2022-12-23T12:17:26.054Z,959.73
2022-12-23T12:18:25.841Z,959.76
2022-12-23T12:19:25.975Z,959.71
2022-12-23T12:20:25.820Z,959.73
2022-12-23T12:21:25.892Z,959.71
2022-12-23T12:22:25.752Z,959.66
2022-12-23T12:23:25.917Z,959.61
2022-12-23T12:24:25.706Z,959.62
2022-12-23T12:25:25.966Z,959.59
2022-12-23T12:26:25.689Z,959.58
2022-12-23T12:27:25.850Z,959.57
2022-12-23T12:28:25.666Z,959.57